sensor_id;sensor_type;location;lat;lon;timestamp;temperature;humidity
4453;DHT22;2239;48.152;11.584;2023-08-17T00:02:14;21.00;99.90
4453;DHT22;2239;48.152;11.584;2023-08-17T00:04:40;20.90;99.90
4453;DHT22;2239;48.152;11.584;2023-08-17T00:07:06;20.90;99.90
4453;DHT22;2239;48.152;11.584;2023-08-17T00:09:32;20.90;99.90
4453;DHT22;2239;48.152;11.584;2023-08-17T00:11:57;20.90;99.90
4453;DHT22;2239;48.152;11.584;2023-08-17T00:14:23;20.80;99.90
4453;DHT22;2239;48.152;11.584;2023-08-17T00:16:50;20.90;99.90
4453;DHT22;2239;48.152;11.584;2023-08-17T00:19:16;20.90;99.90
4453;DHT22;2239;48.152;11.584;2023-08-17T00:21:41;21.00;99.90
4453;DHT22;2239;48.152;11.584;2023-08-17T00:24:07;21.00;99.90
4453;DHT22;2239;48.152;11.584;2023-08-17T00:26:33;21.00;99.90
4453;DHT22;2239;48.152;11.584;2023-08-17T00:28:59;21.00;99.90
4453;DHT22;2239;48.152;11.584;2023-08-17T00:31:24;21.00;99.90
4453;DHT22;2239;48.152;11.584;2023-08-17T00:33:50;21.10;99.90
4453;DHT22;2239;48.152;11.584;2023-08-17T00:36:15;21.00;99.90
4453;DHT22;2239;48.152;11.584;2023-08-17T00:38:41;21.00;99.90
4453;DHT22;2239;48.152;11.584;2023-08-17T00:41:06;21.00;99.90
4453;DHT22;2239;48.152;11.584;2023-08-17T00:43:32;20.90;99.90
4453;DHT22;2239;48.152;11.584;2023-08-17T00:45:58;20.90;99.90
4453;DHT22;2239;48.152;11.584;2023-08-17T00:48:24;20.80;99.90
4453;DHT22;2239;48.152;11.584;2023-08-17T00:50:50;20.90;99.90
4453;DHT22;2239;48.152;11.584;2023-08-17T00:53:18;20.90;99.90
4453;DHT22;2239;48.152;11.584;2023-08-17T00:55:44;20.80;99.90
4453;DHT22;2239;48.152;11.584;2023-08-17T00:58:10;20.80;99.90
4453;DHT22;2239;48.152;11.584;2023-08-17T01:00:36;20.80;99.90
4453;DHT22;2239;48.152;11.584;2023-08-17T01:03:01;20.80;99.90
4453;DHT22;2239;48.152;11.584;2023-08-17T01:05:28;20.90;99.90
4453;DHT22;2239;48.152;11.584;2023-08-17T01:07:54;20.80;99.90
4453;DHT22;2239;48.152;11.584;2023-08-17T01:10:23;20.90;99.90
4453;DHT22;2239;48.152;11.584;2023-08-17T01:13:09;20.90;99.90
4453;DHT22;2239;48.152;11.584;2023-08-17T01:15:39;20.90;99.90
4453;DHT22;2239;48.152;11.584;2023-08-17T01:20:31;20.90;99.90
4453;DHT22;2239;48.152;11.584;2023-08-17T01:23:07;20.70;99.90
4453;DHT22;2239;48.152;11.584;2023-08-17T01:25:33;20.60;99.90
4453;DHT22;2239;48.152;11.584;2023-08-17T01:28:02;20.60;99.90
4453;DHT22;2239;48.152;11.584;2023-08-17T01:30:28;20.70;99.90
4453;DHT22;2239;48.152;11.584;2023-08-17T01:33:03;20.60;99.90
4453;DHT22;2239;48.152;11.584;2023-08-17T01:35:37;20.60;99.90
4453;DHT22;2239;48.152;11.584;2023-08-17T01:38:07;20.50;99.90
4453;DHT22;2239;48.152;11.584;2023-08-17T01:40:34;20.40;99.90
4453;DHT22;2239;48.152;11.584;2023-08-17T01:43:01;20.40;99.90
4453;DHT22;2239;48.152;11.584;2023-08-17T01:45:27;20.30;99.90
4453;DHT22;2239;48.152;11.584;2023-08-17T01:47:53;20.30;99.90
4453;DHT22;2239;48.152;11.584;2023-08-17T01:50:20;20.30;99.90
4453;DHT22;2239;48.152;11.584;2023-08-17T01:52:45;20.30;99.90
4453;DHT22;2239;48.152;11.584;2023-08-17T01:55:11;20.30;99.90
4453;DHT22;2239;48.152;11.584;2023-08-17T01:57:36;20.30;99.90
4453;DHT22;2239;48.152;11.584;2023-08-17T02:00:04;20.30;99.90
4453;DHT22;2239;48.152;11.584;2023-08-17T02:02:30;20.20;99.90
4453;DHT22;2239;48.152;11.584;2023-08-17T02:04:56;20.30;99.90
4453;DHT22;2239;48.152;11.584;2023-08-17T02:07:22;20.20;99.90
4453;DHT22;2239;48.152;11.584;2023-08-17T02:09:47;20.10;99.90
4453;DHT22;2239;48.152;11.584;2023-08-17T02:12:13;20.10;99.90
4453;DHT22;2239;48.152;11.584;2023-08-17T02:14:38;20.10;99.90
4453;DHT22;2239;48.152;11.584;2023-08-17T02:17:04;20.00;99.90
4453;DHT22;2239;48.152;11.584;2023-08-17T02:19:31;19.90;99.90
4453;DHT22;2239;48.152;11.584;2023-08-17T02:21:57;19.90;99.90
4453;DHT22;2239;48.152;11.584;2023-08-17T02:24:22;19.90;99.90
4453;DHT22;2239;48.152;11.584;2023-08-17T02:26:48;20.00;99.90
4453;DHT22;2239;48.152;11.584;2023-08-17T02:29:13;20.00;99.90
4453;DHT22;2239;48.152;11.584;2023-08-17T02:31:39;20.00;99.90
4453;DHT22;2239;48.152;11.584;2023-08-17T02:34:04;20.00;99.90
4453;DHT22;2239;48.152;11.584;2023-08-17T02:36:31;19.90;99.90
4453;DHT22;2239;48.152;11.584;2023-08-17T02:38:57;19.80;99.90
4453;DHT22;2239;48.152;11.584;2023-08-17T02:41:22;19.80;99.90
4453;DHT22;2239;48.152;11.584;2023-08-17T02:43:48;19.80;99.90
4453;DHT22;2239;48.152;11.584;2023-08-17T02:46:14;19.80;99.90
4453;DHT22;2239;48.152;11.584;2023-08-17T02:48:40;19.80;99.90
4453;DHT22;2239;48.152;11.584;2023-08-17T02:51:06;19.80;99.90
4453;DHT22;2239;48.152;11.584;2023-08-17T02:53:31;19.80;99.90
4453;DHT22;2239;48.152;11.584;2023-08-17T02:55:57;19.90;99.90
4453;DHT22;2239;48.152;11.584;2023-08-17T02:58:22;19.90;99.90
4453;DHT22;2239;48.152;11.584;2023-08-17T03:00:51;19.90;99.90
4453;DHT22;2239;48.152;11.584;2023-08-17T03:03:17;19.90;99.90
4453;DHT22;2239;48.152;11.584;2023-08-17T03:05:42;19.90;99.90
4453;DHT22;2239;48.152;11.584;2023-08-17T03:08:08;20.00;99.90
4453;DHT22;2239;48.152;11.584;2023-08-17T03:10:33;19.90;99.90
4453;DHT22;2239;48.152;11.584;2023-08-17T03:12:59;19.90;99.90
4453;DHT22;2239;48.152;11.584;2023-08-17T03:15:25;19.90;99.90
4453;DHT22;2239;48.152;11.584;2023-08-17T03:17:50;19.90;99.90
4453;DHT22;2239;48.152;11.584;2023-08-17T03:20:16;19.90;99.90
4453;DHT22;2239;48.152;11.584;2023-08-17T03:22:41;19.90;99.90
4453;DHT22;2239;48.152;11.584;2023-08-17T03:25:07;19.90;99.90
4453;DHT22;2239;48.152;11.584;2023-08-17T03:27:33;19.90;99.90
4453;DHT22;2239;48.152;11.584;2023-08-17T03:29:58;19.80;99.90
4453;DHT22;2239;48.152;11.584;2023-08-17T03:32:24;19.80;99.90
4453;DHT22;2239;48.152;11.584;2023-08-17T03:34:49;19.80;99.90
4453;DHT22;2239;48.152;11.584;2023-08-17T03:37:15;19.70;99.90
4453;DHT22;2239;48.152;11.584;2023-08-17T03:39:41;19.80;99.90
4453;DHT22;2239;48.152;11.584;2023-08-17T03:42:06;19.80;99.90
4453;DHT22;2239;48.152;11.584;2023-08-17T03:44:32;19.80;99.90
4453;DHT22;2239;48.152;11.584;2023-08-17T03:46:57;19.70;99.90
4453;DHT22;2239;48.152;11.584;2023-08-17T03:49:23;19.70;99.90
4453;DHT22;2239;48.152;11.584;2023-08-17T03:51:48;19.70;99.90
4453;DHT22;2239;48.152;11.584;2023-08-17T03:54:14;19.70;99.90
4453;DHT22;2239;48.152;11.584;2023-08-17T03:56:39;19.60;99.90
4453;DHT22;2239;48.152;11.584;2023-08-17T03:59:05;19.60;99.90
4453;DHT22;2239;48.152;11.584;2023-08-17T04:01:30;19.50;99.90
4453;DHT22;2239;48.152;11.584;2023-08-17T04:03:56;19.40;99.90
4453;DHT22;2239;48.152;11.584;2023-08-17T04:06:22;19.40;99.90
4453;DHT22;2239;48.152;11.584;2023-08-17T04:08:48;19.40;99.90
4453;DHT22;2239;48.152;11.584;2023-08-17T04:11:13;19.20;99.90
4453;DHT22;2239;48.152;11.584;2023-08-17T04:13:39;19.20;99.90
4453;DHT22;2239;48.152;11.584;2023-08-17T04:16:04;19.20;99.90
4453;DHT22;2239;48.152;11.584;2023-08-17T04:18:30;19.10;99.90
4453;DHT22;2239;48.152;11.584;2023-08-17T04:20:55;19.10;99.90
4453;DHT22;2239;48.152;11.584;2023-08-17T04:23:21;19.10;99.90
4453;DHT22;2239;48.152;11.584;2023-08-17T04:25:47;19.20;99.90
4453;DHT22;2239;48.152;11.584;2023-08-17T04:28:13;19.30;99.90
4453;DHT22;2239;48.152;11.584;2023-08-17T04:30:39;19.20;99.90
4453;DHT22;2239;48.152;11.584;2023-08-17T04:33:05;19.30;99.90
4453;DHT22;2239;48.152;11.584;2023-08-17T04:35:30;19.30;99.90
4453;DHT22;2239;48.152;11.584;2023-08-17T04:37:56;19.40;99.90
4453;DHT22;2239;48.152;11.584;2023-08-17T04:40:24;19.40;99.90
4453;DHT22;2239;48.152;11.584;2023-08-17T04:42:50;19.50;99.90
4453;DHT22;2239;48.152;11.584;2023-08-17T04:45:15;19.50;99.90
4453;DHT22;2239;48.152;11.584;2023-08-17T04:47:41;19.50;99.90
4453;DHT22;2239;48.152;11.584;2023-08-17T04:50:07;19.60;99.90
4453;DHT22;2239;48.152;11.584;2023-08-17T04:52:32;19.60;99.90
4453;DHT22;2239;48.152;11.584;2023-08-17T04:54:58;19.60;99.90
4453;DHT22;2239;48.152;11.584;2023-08-17T04:57:23;19.60;99.90
4453;DHT22;2239;48.152;11.584;2023-08-17T04:59:49;19.60;99.90
4453;DHT22;2239;48.152;11.584;2023-08-17T05:02:15;19.60;99.90
4453;DHT22;2239;48.152;11.584;2023-08-17T05:04:41;19.70;99.90
4453;DHT22;2239;48.152;11.584;2023-08-17T05:07:07;19.80;99.90
4453;DHT22;2239;48.152;11.584;2023-08-17T05:09:33;19.90;99.90
4453;DHT22;2239;48.152;11.584;2023-08-17T05:11:58;19.90;99.90
4453;DHT22;2239;48.152;11.584;2023-08-17T05:14:24;19.90;99.90
4453;DHT22;2239;48.152;11.584;2023-08-17T05:16:50;20.00;99.90
4453;DHT22;2239;48.152;11.584;2023-08-17T05:19:15;20.10;99.90
4453;DHT22;2239;48.152;11.584;2023-08-17T05:21:41;20.20;99.90
4453;DHT22;2239;48.152;11.584;2023-08-17T05:24:06;20.30;99.90
4453;DHT22;2239;48.152;11.584;2023-08-17T05:26:32;20.30;99.90
4453;DHT22;2239;48.152;11.584;2023-08-17T05:28:58;20.40;99.90
4453;DHT22;2239;48.152;11.584;2023-08-17T05:31:23;20.50;99.90
4453;DHT22;2239;48.152;11.584;2023-08-17T05:33:49;20.50;99.90
4453;DHT22;2239;48.152;11.584;2023-08-17T05:36:14;20.60;99.90
4453;DHT22;2239;48.152;11.584;2023-08-17T05:38:40;20.70;99.90
4453;DHT22;2239;48.152;11.584;2023-08-17T05:41:06;20.80;99.90
4453;DHT22;2239;48.152;11.584;2023-08-17T05:43:31;21.00;99.90
4453;DHT22;2239;48.152;11.584;2023-08-17T05:45:57;21.00;99.90
4453;DHT22;2239;48.152;11.584;2023-08-17T05:48:25;21.20;99.90
4453;DHT22;2239;48.152;11.584;2023-08-17T05:50:50;21.20;99.90
4453;DHT22;2239;48.152;11.584;2023-08-17T05:53:16;21.30;99.90
4453;DHT22;2239;48.152;11.584;2023-08-17T05:55:41;21.40;99.90
4453;DHT22;2239;48.152;11.584;2023-08-17T05:58:07;21.50;99.90
4453;DHT22;2239;48.152;11.584;2023-08-17T06:00:32;21.60;99.90
4453;DHT22;2239;48.152;11.584;2023-08-17T06:02:58;21.70;99.90
4453;DHT22;2239;48.152;11.584;2023-08-17T06:05:30;21.80;99.90
4453;DHT22;2239;48.152;11.584;2023-08-17T06:07:56;22.00;99.90
4453;DHT22;2239;48.152;11.584;2023-08-17T06:10:23;22.10;99.90
4453;DHT22;2239;48.152;11.584;2023-08-17T06:12:55;22.20;99.90
4453;DHT22;2239;48.152;11.584;2023-08-17T06:15:21;22.30;99.90
4453;DHT22;2239;48.152;11.584;2023-08-17T06:17:47;22.50;99.90
4453;DHT22;2239;48.152;11.584;2023-08-17T06:20:15;22.50;99.90
4453;DHT22;2239;48.152;11.584;2023-08-17T06:22:41;22.60;99.90
4453;DHT22;2239;48.152;11.584;2023-08-17T06:25:07;22.70;99.90
4453;DHT22;2239;48.152;11.584;2023-08-17T06:27:34;22.80;99.90
4453;DHT22;2239;48.152;11.584;2023-08-17T06:30:00;22.90;99.90
4453;DHT22;2239;48.152;11.584;2023-08-17T06:32:25;22.90;99.90
4453;DHT22;2239;48.152;11.584;2023-08-17T06:34:51;23.00;99.90
4453;DHT22;2239;48.152;11.584;2023-08-17T06:37:19;23.10;99.90
4453;DHT22;2239;48.152;11.584;2023-08-17T06:39:45;23.20;99.90
4453;DHT22;2239;48.152;11.584;2023-08-17T06:42:10;23.30;99.90
4453;DHT22;2239;48.152;11.584;2023-08-17T06:44:37;23.40;99.90
4453;DHT22;2239;48.152;11.584;2023-08-17T06:47:03;23.50;99.90
4453;DHT22;2239;48.152;11.584;2023-08-17T06:49:28;23.60;99.90
4453;DHT22;2239;48.152;11.584;2023-08-17T06:51:54;23.60;99.90
4453;DHT22;2239;48.152;11.584;2023-08-17T06:54:19;23.60;99.90
4453;DHT22;2239;48.152;11.584;2023-08-17T06:56:45;23.70;99.90
4453;DHT22;2239;48.152;11.584;2023-08-17T06:59:10;23.80;99.90
4453;DHT22;2239;48.152;11.584;2023-08-17T07:01:36;24.00;99.90
4453;DHT22;2239;48.152;11.584;2023-08-17T07:04:02;24.10;99.90
4453;DHT22;2239;48.152;11.584;2023-08-17T07:06:27;24.10;99.90
4453;DHT22;2239;48.152;11.584;2023-08-17T07:08:54;24.10;99.90
4453;DHT22;2239;48.152;11.584;2023-08-17T07:11:19;24.10;99.90
4453;DHT22;2239;48.152;11.584;2023-08-17T07:13:45;24.10;99.90
4453;DHT22;2239;48.152;11.584;2023-08-17T07:16:10;24.10;99.90
4453;DHT22;2239;48.152;11.584;2023-08-17T07:18:36;24.20;99.90
4453;DHT22;2239;48.152;11.584;2023-08-17T07:21:02;24.40;99.90
4453;DHT22;2239;48.152;11.584;2023-08-17T07:23:27;24.50;99.90
4453;DHT22;2239;48.152;11.584;2023-08-17T07:25:53;24.60;99.90
4453;DHT22;2239;48.152;11.584;2023-08-17T07:28:19;24.70;99.90
4453;DHT22;2239;48.152;11.584;2023-08-17T07:30:44;24.90;99.90
4453;DHT22;2239;48.152;11.584;2023-08-17T07:33:10;25.00;99.90
4453;DHT22;2239;48.152;11.584;2023-08-17T07:35:35;25.10;99.90
4453;DHT22;2239;48.152;11.584;2023-08-17T07:38:01;25.20;99.90
4453;DHT22;2239;48.152;11.584;2023-08-17T07:40:26;25.40;99.90
4453;DHT22;2239;48.152;11.584;2023-08-17T07:42:52;25.60;99.90
4453;DHT22;2239;48.152;11.584;2023-08-17T07:45:18;25.80;99.90
4453;DHT22;2239;48.152;11.584;2023-08-17T07:47:43;25.90;99.90
4453;DHT22;2239;48.152;11.584;2023-08-17T07:50:09;26.20;99.90
4453;DHT22;2239;48.152;11.584;2023-08-17T07:52:35;26.30;99.90
4453;DHT22;2239;48.152;11.584;2023-08-17T07:55:00;26.40;99.90
4453;DHT22;2239;48.152;11.584;2023-08-17T07:57:26;26.50;99.90
4453;DHT22;2239;48.152;11.584;2023-08-17T07:59:51;26.70;99.90
4453;DHT22;2239;48.152;11.584;2023-08-17T08:02:19;26.90;99.90
4453;DHT22;2239;48.152;11.584;2023-08-17T08:04:44;27.20;99.90
4453;DHT22;2239;48.152;11.584;2023-08-17T08:07:10;27.30;99.90
4453;DHT22;2239;48.152;11.584;2023-08-17T08:09:35;27.50;99.90
4453;DHT22;2239;48.152;11.584;2023-08-17T08:12:02;27.60;99.30
4453;DHT22;2239;48.152;11.584;2023-08-17T08:14:27;27.60;98.90
4453;DHT22;2239;48.152;11.584;2023-08-17T08:16:53;27.60;99.00
4453;DHT22;2239;48.152;11.584;2023-08-17T08:19:19;27.60;99.00
4453;DHT22;2239;48.152;11.584;2023-08-17T08:21:44;27.80;98.50
4453;DHT22;2239;48.152;11.584;2023-08-17T08:24:10;27.90;98.00
4453;DHT22;2239;48.152;11.584;2023-08-17T08:26:35;28.00;97.60
4453;DHT22;2239;48.152;11.584;2023-08-17T08:29:01;28.00;97.70
4453;DHT22;2239;48.152;11.584;2023-08-17T08:31:26;28.30;97.80
4453;DHT22;2239;48.152;11.584;2023-08-17T08:33:52;28.50;97.10
4453;DHT22;2239;48.152;11.584;2023-08-17T08:36:18;28.50;96.90
4453;DHT22;2239;48.152;11.584;2023-08-17T08:38:44;28.60;97.20
4453;DHT22;2239;48.152;11.584;2023-08-17T08:41:11;28.90;96.50
4453;DHT22;2239;48.152;11.584;2023-08-17T08:43:38;29.20;96.20
4453;DHT22;2239;48.152;11.584;2023-08-17T08:46:05;29.50;95.40
4453;DHT22;2239;48.152;11.584;2023-08-17T08:48:32;29.50;95.70
4453;DHT22;2239;48.152;11.584;2023-08-17T08:50:59;29.50;94.90
4453;DHT22;2239;48.152;11.584;2023-08-17T08:53:35;29.40;94.70
4453;DHT22;2239;48.152;11.584;2023-08-17T08:56:03;29.50;94.50
4453;DHT22;2239;48.152;11.584;2023-08-17T08:58:29;29.60;94.50
4453;DHT22;2239;48.152;11.584;2023-08-17T09:00:57;29.80;94.70
4453;DHT22;2239;48.152;11.584;2023-08-17T09:03:24;30.00;93.90
4453;DHT22;2239;48.152;11.584;2023-08-17T09:05:50;30.20;94.00
4453;DHT22;2239;48.152;11.584;2023-08-17T09:08:21;30.60;93.50
4453;DHT22;2239;48.152;11.584;2023-08-17T09:10:48;30.70;92.20
4453;DHT22;2239;48.152;11.584;2023-08-17T09:13:13;30.80;92.00
4453;DHT22;2239;48.152;11.584;2023-08-17T09:15:39;30.90;92.40
4453;DHT22;2239;48.152;11.584;2023-08-17T09:18:05;31.00;92.00
4453;DHT22;2239;48.152;11.584;2023-08-17T09:20:38;31.10;91.30
4453;DHT22;2239;48.152;11.584;2023-08-17T09:23:05;31.00;91.50
4453;DHT22;2239;48.152;11.584;2023-08-17T09:25:34;31.20;91.50
4453;DHT22;2239;48.152;11.584;2023-08-17T09:28:07;31.50;90.80
4453;DHT22;2239;48.152;11.584;2023-08-17T09:30:49;31.80;90.30
4453;DHT22;2239;48.152;11.584;2023-08-17T09:33:14;31.90;90.10
4453;DHT22;2239;48.152;11.584;2023-08-17T09:35:42;32.00;90.20
4453;DHT22;2239;48.152;11.584;2023-08-17T09:38:08;32.10;89.90
4453;DHT22;2239;48.152;11.584;2023-08-17T09:40:34;32.10;89.70
4453;DHT22;2239;48.152;11.584;2023-08-17T09:42:59;31.90;90.10
4453;DHT22;2239;48.152;11.584;2023-08-17T09:45:27;31.90;90.40
4453;DHT22;2239;48.152;11.584;2023-08-17T09:47:52;32.00;90.10
4453;DHT22;2239;48.152;11.584;2023-08-17T09:50:22;32.10;89.20
4453;DHT22;2239;48.152;11.584;2023-08-17T09:52:48;32.20;88.60
4453;DHT22;2239;48.152;11.584;2023-08-17T09:55:18;32.00;88.80
4453;DHT22;2239;48.152;11.584;2023-08-17T09:57:44;31.80;89.00
4453;DHT22;2239;48.152;11.584;2023-08-17T10:00:11;31.70;89.20
4453;DHT22;2239;48.152;11.584;2023-08-17T10:02:37;31.50;90.00
4453;DHT22;2239;48.152;11.584;2023-08-17T10:05:04;31.50;89.80
4453;DHT22;2239;48.152;11.584;2023-08-17T10:07:31;31.40;90.00
4453;DHT22;2239;48.152;11.584;2023-08-17T10:10:04;31.30;89.80
4453;DHT22;2239;48.152;11.584;2023-08-17T10:12:35;31.30;90.00
4453;DHT22;2239;48.152;11.584;2023-08-17T10:15:08;31.50;90.30
4453;DHT22;2239;48.152;11.584;2023-08-17T10:17:42;31.60;89.60
4453;DHT22;2239;48.152;11.584;2023-08-17T10:20:09;31.40;88.50
4453;DHT22;2239;48.152;11.584;2023-08-17T10:22:52;31.30;88.80
4453;DHT22;2239;48.152;11.584;2023-08-17T10:25:20;31.50;90.00
4453;DHT22;2239;48.152;11.584;2023-08-17T10:27:47;31.80;89.20
4453;DHT22;2239;48.152;11.584;2023-08-17T10:30:14;31.70;89.30
4453;DHT22;2239;48.152;11.584;2023-08-17T10:32:41;31.50;89.00
4453;DHT22;2239;48.152;11.584;2023-08-17T10:35:10;31.70;87.90
4453;DHT22;2239;48.152;11.584;2023-08-17T10:37:37;32.00;88.50
4453;DHT22;2239;48.152;11.584;2023-08-17T10:40:04;32.40;86.70
4453;DHT22;2239;48.152;11.584;2023-08-17T10:42:36;32.70;85.30
4453;DHT22;2239;48.152;11.584;2023-08-17T10:45:25;32.60;84.90
4453;DHT22;2239;48.152;11.584;2023-08-17T10:50:31;32.30;86.00
4453;DHT22;2239;48.152;11.584;2023-08-17T10:52:58;32.60;86.00
4453;DHT22;2239;48.152;11.584;2023-08-17T10:55:36;32.70;84.90
4453;DHT22;2239;48.152;11.584;2023-08-17T10:58:02;32.50;83.00
4453;DHT22;2239;48.152;11.584;2023-08-17T11:00:38;32.00;84.00
4453;DHT22;2239;48.152;11.584;2023-08-17T11:03:05;31.80;85.40
4453;DHT22;2239;48.152;11.584;2023-08-17T11:05:35;31.50;86.90
4453;DHT22;2239;48.152;11.584;2023-08-17T11:08:02;31.60;88.40
4453;DHT22;2239;48.152;11.584;2023-08-17T11:10:30;31.70;88.30
4453;DHT22;2239;48.152;11.584;2023-08-17T11:12:57;31.80;87.50
4453;DHT22;2239;48.152;11.584;2023-08-17T11:15:26;31.90;86.40
4453;DHT22;2239;48.152;11.584;2023-08-17T11:17:59;32.00;86.10
4453;DHT22;2239;48.152;11.584;2023-08-17T11:20:25;32.00;87.20
4453;DHT22;2239;48.152;11.584;2023-08-17T11:22:50;31.90;86.40
4453;DHT22;2239;48.152;11.584;2023-08-17T11:25:17;31.60;87.40
4453;DHT22;2239;48.152;11.584;2023-08-17T11:27:43;31.50;87.60
4453;DHT22;2239;48.152;11.584;2023-08-17T11:30:09;31.50;88.20
4453;DHT22;2239;48.152;11.584;2023-08-17T11:32:35;31.40;88.80
4453;DHT22;2239;48.152;11.584;2023-08-17T11:35:01;31.10;89.60
4453;DHT22;2239;48.152;11.584;2023-08-17T11:37:26;31.10;90.30
4453;DHT22;2239;48.152;11.584;2023-08-17T11:39:52;31.20;90.50
4453;DHT22;2239;48.152;11.584;2023-08-17T11:42:17;31.30;90.50
4453;DHT22;2239;48.152;11.584;2023-08-17T11:44:43;31.50;90.80
4453;DHT22;2239;48.152;11.584;2023-08-17T11:47:10;31.60;90.40
4453;DHT22;2239;48.152;11.584;2023-08-17T11:49:37;31.70;90.40
4453;DHT22;2239;48.152;11.584;2023-08-17T11:52:02;31.90;90.10
4453;DHT22;2239;48.152;11.584;2023-08-17T11:54:28;31.90;89.80
4453;DHT22;2239;48.152;11.584;2023-08-17T11:56:57;31.70;89.90
4453;DHT22;2239;48.152;11.584;2023-08-17T11:59:23;31.30;90.10
4453;DHT22;2239;48.152;11.584;2023-08-17T12:01:49;31.10;90.30
4453;DHT22;2239;48.152;11.584;2023-08-17T12:04:14;31.20;90.00
4453;DHT22;2239;48.152;11.584;2023-08-17T12:06:44;31.40;90.00
4453;DHT22;2239;48.152;11.584;2023-08-17T12:09:12;31.70;89.00
4453;DHT22;2239;48.152;11.584;2023-08-17T12:11:40;32.00;88.50
4453;DHT22;2239;48.152;11.584;2023-08-17T12:14:11;32.20;88.10
4453;DHT22;2239;48.152;11.584;2023-08-17T12:16:46;32.40;86.80
4453;DHT22;2239;48.152;11.584;2023-08-17T12:19:13;32.50;86.60
4453;DHT22;2239;48.152;11.584;2023-08-17T12:21:41;32.60;86.50
4453;DHT22;2239;48.152;11.584;2023-08-17T12:24:08;32.60;87.10
4453;DHT22;2239;48.152;11.584;2023-08-17T12:26:34;32.60;86.80
4453;DHT22;2239;48.152;11.584;2023-08-17T12:29:04;32.50;85.50
4453;DHT22;2239;48.152;11.584;2023-08-17T12:31:29;32.30;86.10
4453;DHT22;2239;48.152;11.584;2023-08-17T12:33:55;32.50;85.80
4453;DHT22;2239;48.152;11.584;2023-08-17T12:36:21;32.60;85.30
4453;DHT22;2239;48.152;11.584;2023-08-17T12:38:46;32.80;83.60
4453;DHT22;2239;48.152;11.584;2023-08-17T12:41:13;32.60;82.50
4453;DHT22;2239;48.152;11.584;2023-08-17T12:43:39;32.50;83.90
4453;DHT22;2239;48.152;11.584;2023-08-17T12:46:04;32.30;82.60
4453;DHT22;2239;48.152;11.584;2023-08-17T12:48:30;32.30;82.50
4453;DHT22;2239;48.152;11.584;2023-08-17T12:50:55;32.50;82.40
4453;DHT22;2239;48.152;11.584;2023-08-17T12:53:22;32.40;80.50
4453;DHT22;2239;48.152;11.584;2023-08-17T12:55:47;32.60;81.40
4453;DHT22;2239;48.152;11.584;2023-08-17T12:58:13;32.80;80.90
4453;DHT22;2239;48.152;11.584;2023-08-17T13:00:38;32.80;79.70
4453;DHT22;2239;48.152;11.584;2023-08-17T13:03:04;32.60;79.50
4453;DHT22;2239;48.152;11.584;2023-08-17T13:05:30;32.50;79.20
4453;DHT22;2239;48.152;11.584;2023-08-17T13:07:55;32.60;77.20
4453;DHT22;2239;48.152;11.584;2023-08-17T13:10:22;32.40;77.10
4453;DHT22;2239;48.152;11.584;2023-08-17T13:12:47;32.40;77.40
4453;DHT22;2239;48.152;11.584;2023-08-17T13:15:13;32.40;77.20
4453;DHT22;2239;48.152;11.584;2023-08-17T13:17:39;32.50;76.80
4453;DHT22;2239;48.152;11.584;2023-08-17T13:20:05;32.60;76.20
4453;DHT22;2239;48.152;11.584;2023-08-17T13:22:32;32.50;76.40
4453;DHT22;2239;48.152;11.584;2023-08-17T13:24:57;32.70;73.50
4453;DHT22;2239;48.152;11.584;2023-08-17T13:27:23;32.70;74.80
4453;DHT22;2239;48.152;11.584;2023-08-17T13:29:49;32.80;74.60
4453;DHT22;2239;48.152;11.584;2023-08-17T13:32:14;32.80;74.70
4453;DHT22;2239;48.152;11.584;2023-08-17T13:34:40;32.70;73.30
4453;DHT22;2239;48.152;11.584;2023-08-17T13:37:05;32.50;72.80
4453;DHT22;2239;48.152;11.584;2023-08-17T13:39:31;32.30;72.80
4453;DHT22;2239;48.152;11.584;2023-08-17T13:41:57;32.10;74.00
4453;DHT22;2239;48.152;11.584;2023-08-17T13:44:23;32.20;74.90
4453;DHT22;2239;48.152;11.584;2023-08-17T13:46:48;32.40;73.30
4453;DHT22;2239;48.152;11.584;2023-08-17T13:49:14;32.40;73.70
4453;DHT22;2239;48.152;11.584;2023-08-17T13:51:40;32.40;72.40
4453;DHT22;2239;48.152;11.584;2023-08-17T13:54:05;32.40;71.70
4453;DHT22;2239;48.152;11.584;2023-08-17T13:56:31;32.20;75.00
4453;DHT22;2239;48.152;11.584;2023-08-17T13:58:57;31.70;77.40
4453;DHT22;2239;48.152;11.584;2023-08-17T14:01:22;31.20;79.30
4453;DHT22;2239;48.152;11.584;2023-08-17T14:03:48;30.90;80.70
4453;DHT22;2239;48.152;11.584;2023-08-17T14:06:13;30.60;80.80
4453;DHT22;2239;48.152;11.584;2023-08-17T14:08:39;30.40;82.50
4453;DHT22;2239;48.152;11.584;2023-08-17T14:11:05;30.30;83.80
4453;DHT22;2239;48.152;11.584;2023-08-17T14:13:31;30.30;84.50
4453;DHT22;2239;48.152;11.584;2023-08-17T14:15:57;30.10;86.00
4453;DHT22;2239;48.152;11.584;2023-08-17T14:18:25;29.90;87.00
4453;DHT22;2239;48.152;11.584;2023-08-17T14:20:50;29.90;88.50
4453;DHT22;2239;48.152;11.584;2023-08-17T14:23:16;29.70;90.00
4453;DHT22;2239;48.152;11.584;2023-08-17T14:25:41;29.70;90.30
4453;DHT22;2239;48.152;11.584;2023-08-17T14:28:07;29.60;89.90
4453;DHT22;2239;48.152;11.584;2023-08-17T14:30:33;29.60;90.00
4453;DHT22;2239;48.152;11.584;2023-08-17T14:32:59;29.60;90.50
4453;DHT22;2239;48.152;11.584;2023-08-17T14:35:25;29.50;90.60
4453;DHT22;2239;48.152;11.584;2023-08-17T14:37:51;29.60;90.70
4453;DHT22;2239;48.152;11.584;2023-08-17T14:40:23;29.60;90.70
4453;DHT22;2239;48.152;11.584;2023-08-17T14:42:48;29.70;90.80
4453;DHT22;2239;48.152;11.584;2023-08-17T14:45:14;29.90;90.80
4453;DHT22;2239;48.152;11.584;2023-08-17T14:47:40;30.10;90.40
4453;DHT22;2239;48.152;11.584;2023-08-17T14:50:06;30.40;90.00
4453;DHT22;2239;48.152;11.584;2023-08-17T14:52:31;30.60;89.20
4453;DHT22;2239;48.152;11.584;2023-08-17T14:54:57;30.70;88.20
4453;DHT22;2239;48.152;11.584;2023-08-17T14:57:23;30.80;86.60
4453;DHT22;2239;48.152;11.584;2023-08-17T14:59:48;30.80;86.90
4453;DHT22;2239;48.152;11.584;2023-08-17T15:02:14;31.00;87.40
4453;DHT22;2239;48.152;11.584;2023-08-17T15:04:42;31.10;85.50
4453;DHT22;2239;48.152;11.584;2023-08-17T15:07:07;31.10;83.50
4453;DHT22;2239;48.152;11.584;2023-08-17T15:09:37;31.20;83.30
4453;DHT22;2239;48.152;11.584;2023-08-17T15:12:03;31.30;82.60
4453;DHT22;2239;48.152;11.584;2023-08-17T15:14:29;31.40;81.50
4453;DHT22;2239;48.152;11.584;2023-08-17T15:16:55;31.40;79.50
4453;DHT22;2239;48.152;11.584;2023-08-17T15:19:20;31.50;79.10
4453;DHT22;2239;48.152;11.584;2023-08-17T15:21:46;31.60;80.60
4453;DHT22;2239;48.152;11.584;2023-08-17T15:24:12;31.40;80.60
4453;DHT22;2239;48.152;11.584;2023-08-17T15:26:37;31.30;79.80
4453;DHT22;2239;48.152;11.584;2023-08-17T15:29:03;31.00;78.70
4453;DHT22;2239;48.152;11.584;2023-08-17T15:31:29;30.70;78.70
4453;DHT22;2239;48.152;11.584;2023-08-17T15:33:54;30.50;79.60
4453;DHT22;2239;48.152;11.584;2023-08-17T15:36:20;30.40;80.50
4453;DHT22;2239;48.152;11.584;2023-08-17T15:38:49;30.40;80.90
4453;DHT22;2239;48.152;11.584;2023-08-17T15:41:15;30.30;79.80
4453;DHT22;2239;48.152;11.584;2023-08-17T15:43:40;30.40;79.40
4453;DHT22;2239;48.152;11.584;2023-08-17T15:46:06;30.30;79.00